Key West International Airport
KEYW : now visible

Airfield :











YOU CAN JOIN US ON...

 
LOGIN :

Register | Disclaimer

   EN    FR    IT 

 









Legend :    VFR   Marginal VFR   IFR   Intensive IFR   Very Intensive IFR
Visi :
Ceiling :
>= 8 km
>= 3000ft
5 to 8 km
1000 to 3000 ft
1500m to 5 km
500 to 1000 ft
800 to 1500m
200 to 500 ft
< 800m
< 200 ft
Symbols :   Thunderstorms  Fog  Heavy snow  Heavy precipitations  Wind > 20 kt






- Airport Elevation : 3 ft
- IATA code : EYW


KEYW - Key West International

CURRENT METAR :
  • 152353Z 14006KT 10SM FEW090 21/17 A2990 RMK AO2 SLP124 T02060172 10228 20206 53003

EXPIRED METARs :
  • 152253Z 00000KT 10SM CLR 21/18 A2990 RMK AO2 SLP124 T02110178
  • 152153Z VRB05KT 10SM SCT095 BKN120 21/17 A2989 RMK AO2 SLP119 T02110172
  • 152053Z 13006KT 10SM FEW110 21/16 A2989 RMK AO2 SLP120 T02110161 55017

TAF KEYW
Valid from the 16 at 00:00 until the 17 at 00:00 UTC


152336Z 1600/1624 16007KT P6SM FEW020 BKN200
FM160700 33013G20KT P6SM BKN020
FM161400 32012G18KT P6SM SCT025 BKN050
KZMA FIR / North America



MET'MAP, your aeronautical weather chart ! - Copyright ORBIFLY December 2007 - Disclaimer

ORBIFLY MET'MAP TEAM :

Programming & Development : Alexandra Zaïnal
Concept & original design : Baudouin d'Aumeries
Assistance for programming : Marc-Olivier Méhu
Technical & hardware support : Manuel Goepfert

Contact : metmap@orbifly.com




SOURCES & CREDITS :

   NOAA       Earth
Advisory